createdAt,value
2018-09-03T00:00:39.551Z,69.69
2018-09-03T00:03:06.705Z,68.63
2018-09-03T00:05:33.913Z,69.10
2018-09-03T00:08:01.078Z,69.20
2018-09-03T00:10:28.223Z,69.52
2018-09-03T00:12:55.347Z,69.77
2018-09-03T00:15:22.481Z,69.83
2018-09-03T00:17:49.602Z,69.80
2018-09-03T00:20:16.730Z,69.15
2018-09-03T00:22:43.861Z,69.19
2018-09-03T00:25:11.145Z,68.80
2018-09-03T00:27:38.542Z,69.48
2018-09-03T00:30:06.041Z,70.22
2018-09-03T00:32:39.145Z,69.21
2018-09-03T00:35:11.819Z,69.58
2018-09-03T00:37:44.936Z,69.63
2018-09-03T00:40:17.573Z,69.62
2018-09-03T00:42:50.447Z,70.89
2018-09-03T00:45:23.299Z,70.53
2018-09-03T00:47:50.414Z,70.58
2018-09-03T00:50:17.530Z,70.27
2018-09-03T00:52:44.677Z,70.86
2018-09-03T00:55:11.779Z,71.61
2018-09-03T00:57:38.893Z,71.08
2018-09-03T01:00:06.488Z,71.81
2018-09-03T01:02:33.630Z,71.87
2018-09-03T01:05:00.753Z,71.56
2018-09-03T01:07:27.830Z,72.13
2018-09-03T01:09:54.946Z,72.14
2018-09-03T01:12:22.037Z,71.47
2018-09-03T01:14:49.239Z,71.37
2018-09-03T01:17:16.328Z,71.64
2018-09-03T01:19:43.442Z,71.56
2018-09-03T01:22:10.552Z,72.70
2018-09-03T01:24:37.682Z,72.70
2018-09-03T01:27:05.006Z,72.24
2018-09-03T01:29:32.168Z,72.07
2018-09-03T01:31:59.198Z,72.87
2018-09-03T01:34:26.690Z,72.81
2018-09-03T01:36:53.834Z,73.02
2018-09-03T01:39:20.942Z,72.78
2018-09-03T01:41:48.063Z,72.86
2018-09-03T01:44:15.179Z,72.68
2018-09-03T01:46:42.317Z,73.00
2018-09-03T01:49:09.413Z,72.80
2018-09-03T01:51:36.528Z,72.92
2018-09-03T01:54:03.626Z,72.20
2018-09-03T01:56:30.750Z,72.55
2018-09-03T01:58:57.840Z,72.57
2018-09-03T02:01:25.049Z,72.39
2018-09-03T02:03:52.182Z,71.38
2018-09-03T02:06:19.651Z,71.49
2018-09-03T02:08:46.740Z,72.17
2018-09-03T02:11:13.967Z,72.55
2018-09-03T02:13:41.128Z,71.87
2018-09-03T02:16:08.228Z,72.35
2018-09-03T02:18:35.362Z,72.84
2018-09-03T02:21:02.495Z,72.06
2018-09-03T02:23:29.598Z,71.85
2018-09-03T02:25:56.718Z,72.21
2018-09-03T02:28:23.843Z,72.14
2018-09-03T02:30:50.967Z,72.34
2018-09-03T02:33:22.090Z,71.79
2018-09-03T02:35:49.219Z,71.92
2018-09-03T02:38:16.335Z,73.18
2018-09-03T02:40:43.431Z,72.73
2018-09-03T02:43:10.593Z,72.87
2018-09-03T02:45:37.701Z,72.21
2018-09-03T02:48:04.898Z,72.74
2018-09-03T02:50:32.020Z,72.22
2018-09-03T02:52:59.120Z,71.98
2018-09-03T02:55:26.265Z,72.33
2018-09-03T02:57:53.370Z,72.96
2018-09-03T03:00:24.681Z,73.05
2018-09-03T03:02:52.071Z,72.38
2018-09-03T03:05:19.192Z,72.64
2018-09-03T03:07:46.323Z,72.91
2018-09-03T03:10:13.462Z,72.63
2018-09-03T03:12:40.558Z,73.09
2018-09-03T03:15:07.726Z,73.10
2018-09-03T03:17:34.806Z,73.26
2018-09-03T03:20:01.914Z,73.23
2018-09-03T03:22:28.998Z,73.25
2018-09-03T03:24:56.168Z,72.92
2018-09-03T03:27:23.259Z,72.57
2018-09-03T03:29:50.363Z,72.87
2018-09-03T03:32:17.486Z,72.62
2018-09-03T03:34:44.577Z,72.27
2018-09-03T03:37:11.690Z,72.54
2018-09-03T03:39:38.785Z,72.49
2018-09-03T03:42:05.938Z,72.21
2018-09-03T03:44:33.040Z,72.31
2018-09-03T03:47:00.146Z,73.69
2018-09-03T03:49:27.222Z,73.26
2018-09-03T03:51:54.406Z,73.34
2018-09-03T03:54:21.505Z,73.13
2018-09-03T03:56:48.604Z,73.65
2018-09-03T03:59:15.685Z,73.37
2018-09-03T04:01:42.823Z,73.32
2018-09-03T04:04:09.997Z,73.38
2018-09-03T04:06:37.144Z,73.73
2018-09-03T04:09:06.598Z,74.17
2018-09-03T04:11:33.691Z,74.04
2018-09-03T04:14:00.789Z,74.32
2018-09-03T04:16:27.960Z,73.73
2018-09-03T04:18:55.107Z,74.42
2018-09-03T04:21:22.221Z,74.45
2018-09-03T04:23:49.365Z,74.21
2018-09-03T04:26:16.470Z,74.43
2018-09-03T04:28:43.612Z,73.79
2018-09-03T04:31:10.666Z,74.10
2018-09-03T04:33:37.837Z,74.03
2018-09-03T04:36:05.071Z,73.99
2018-09-03T04:38:32.248Z,74.17
2018-09-03T04:40:59.323Z,74.32
2018-09-03T04:43:26.473Z,74.50
2018-09-03T04:45:53.586Z,74.61
2018-09-03T04:48:20.744Z,75.40
2018-09-03T04:50:47.821Z,74.54
2018-09-03T04:53:14.926Z,75.42
2018-09-03T04:55:42.056Z,74.89
2018-09-03T04:58:09.217Z,75.60
2018-09-03T05:00:36.317Z,75.43
2018-09-03T05:03:03.417Z,75.28
2018-09-03T05:05:30.683Z,75.63
2018-09-03T05:07:57.798Z,74.98
2018-09-03T05:10:25.000Z,74.91
2018-09-03T05:12:52.137Z,74.89
2018-09-03T05:15:19.262Z,75.23
2018-09-03T05:17:46.432Z,75.57
2018-09-03T05:20:14.073Z,75.67
2018-09-03T05:22:41.221Z,75.49
2018-09-03T05:25:08.322Z,75.28
2018-09-03T05:27:35.448Z,74.72
2018-09-03T05:30:02.617Z,75.25
2018-09-03T05:32:29.712Z,74.90
2018-09-03T05:34:56.878Z,75.64
2018-09-03T05:37:24.106Z,75.74
2018-09-03T05:39:51.258Z,75.03
2018-09-03T05:42:18.406Z,75.19
2018-09-03T05:44:45.601Z,75.29
2018-09-03T05:47:12.977Z,75.31
2018-09-03T05:49:40.106Z,75.08
2018-09-03T05:52:07.193Z,74.56
2018-09-03T05:54:34.318Z,74.83
2018-09-03T05:57:01.405Z,75.06
2018-09-03T05:59:28.573Z,74.15
2018-09-03T06:01:56.220Z,74.65
2018-09-03T06:04:23.361Z,74.18
2018-09-03T06:06:50.578Z,74.40
2018-09-03T06:09:17.652Z,73.95
2018-09-03T06:11:44.796Z,73.71
2018-09-03T06:14:12.160Z,73.49
2018-09-03T06:16:39.340Z,73.44
2018-09-03T06:19:06.414Z,73.87
2018-09-03T06:21:33.559Z,73.52
2018-09-03T06:24:00.889Z,73.66
2018-09-03T06:26:28.077Z,73.67
2018-09-03T06:28:55.221Z,73.90
2018-09-03T06:31:22.321Z,73.96
2018-09-03T06:33:49.441Z,73.49
2018-09-03T06:36:16.838Z,73.22
2018-09-03T06:38:43.994Z,73.93
2018-09-03T06:41:11.404Z,72.84
2018-09-03T06:43:38.915Z,72.50
2018-09-03T06:46:06.074Z,73.09
2018-09-03T06:48:33.589Z,72.83
2018-09-03T06:51:00.808Z,73.11
2018-09-03T06:53:28.006Z,72.91
2018-09-03T06:55:55.212Z,72.66
2018-09-03T06:58:22.355Z,72.44
2018-09-03T07:00:49.582Z,72.61
2018-09-03T07:03:16.830Z,72.06
2018-09-03T07:05:43.973Z,72.11
2018-09-03T07:08:11.218Z,72.16
2018-09-03T07:10:38.402Z,72.25
2018-09-03T07:13:06.632Z,71.85
2018-09-03T07:15:34.353Z,71.67
2018-09-03T07:18:01.718Z,71.41
2018-09-03T07:20:28.838Z,71.50
2018-09-03T07:22:56.018Z,71.14
2018-09-03T07:25:23.098Z,71.61
2018-09-03T07:27:50.307Z,71.58
2018-09-03T07:30:17.446Z,71.72
2018-09-03T07:32:44.964Z,72.15
2018-09-03T07:35:12.338Z,71.52
2018-09-03T07:37:39.454Z,71.61
2018-09-03T07:40:06.977Z,71.63
2018-09-03T07:42:34.094Z,71.11
2018-09-03T07:45:01.234Z,71.79
2018-09-03T07:47:28.404Z,71.03
2018-09-03T07:49:55.571Z,70.48
2018-09-03T07:52:22.754Z,70.64
2018-09-03T07:54:49.874Z,70.82
2018-09-03T07:57:16.998Z,70.71
2018-09-03T07:59:44.131Z,71.33
2018-09-03T08:02:11.282Z,71.29
2018-09-03T08:04:38.435Z,71.29
2018-09-03T08:07:05.760Z,71.21
2018-09-03T08:09:33.153Z,71.05
2018-09-03T08:12:00.366Z,70.68
2018-09-03T08:14:27.493Z,70.40
2018-09-03T08:16:54.696Z,70.82
2018-09-03T08:19:21.906Z,69.52
2018-09-03T08:21:49.141Z,70.02
2018-09-03T08:24:16.263Z,69.23
2018-09-03T08:26:43.673Z,69.35
2018-09-03T08:29:10.825Z,70.25
2018-09-03T08:31:37.996Z,69.54
2018-09-03T08:34:05.131Z,69.34
2018-09-03T08:36:32.274Z,69.17
2018-09-03T08:38:59.432Z,69.67
2018-09-03T08:41:26.595Z,68.81
2018-09-03T08:43:53.825Z,67.93
2018-09-03T08:46:20.973Z,68.92
2018-09-03T08:48:48.080Z,69.14
2018-09-03T08:51:15.266Z,68.34
2018-09-03T08:53:42.528Z,68.64
2018-09-03T08:56:09.749Z,68.77
2018-09-03T08:58:36.966Z,69.75
2018-09-03T09:01:04.078Z,69.24
2018-09-03T09:03:36.825Z,68.71
2018-09-03T09:06:03.960Z,68.35
2018-09-03T09:08:31.111Z,68.68
2018-09-03T09:10:58.335Z,68.86
2018-09-03T09:13:25.517Z,68.97
2018-09-03T09:15:52.631Z,68.36
2018-09-03T09:18:19.797Z,67.76
2018-09-03T09:20:46.906Z,67.21
2018-09-03T09:23:14.558Z,67.67
2018-09-03T09:25:41.678Z,67.58
2018-09-03T09:28:14.910Z,66.30
2018-09-03T09:30:42.030Z,66.96
2018-09-03T09:33:09.894Z,66.54
2018-09-03T09:35:37.435Z,65.97
2018-09-03T09:38:04.638Z,66.00
2018-09-03T09:40:31.869Z,66.38
2018-09-03T09:42:59.216Z,65.98
2018-09-03T09:45:26.658Z,65.74
2018-09-03T09:47:53.890Z,66.58
2018-09-03T09:50:21.278Z,66.64
2018-09-03T09:52:48.457Z,66.30
2018-09-03T09:55:15.713Z,67.21
2018-09-03T09:57:42.989Z,67.24
2018-09-03T10:00:10.896Z,66.48
2018-09-03T10:02:38.871Z,66.73
2018-09-03T10:05:06.531Z,65.68
2018-09-03T10:07:33.665Z,66.51
2018-09-03T10:10:01.127Z,65.04
2018-09-03T10:12:32.363Z,64.61
2018-09-03T10:15:00.645Z,64.55
2018-09-03T10:17:28.797Z,64.83
2018-09-03T10:19:56.207Z,65.63
2018-09-03T10:22:23.353Z,64.96
2018-09-03T10:24:50.718Z,65.60
2018-09-03T10:27:17.866Z,65.96
2018-09-03T10:29:45.095Z,64.48
2018-09-03T10:32:12.292Z,64.49
2018-09-03T10:34:39.438Z,64.46
2018-09-03T10:37:07.344Z,64.08
2018-09-03T10:39:34.454Z,63.82
2018-09-03T10:42:01.650Z,62.79
2018-09-03T10:44:28.905Z,62.65
2018-09-03T10:46:56.055Z,61.47
2018-09-03T10:49:23.180Z,60.67
2018-09-03T10:51:50.502Z,60.64
2018-09-03T10:54:17.764Z,60.64
2018-09-03T10:56:45.113Z,60.37
2018-09-03T10:59:12.239Z,59.23
2018-09-03T11:01:39.397Z,59.77
2018-09-03T11:04:07.305Z,59.17
2018-09-03T11:06:34.485Z,59.16
2018-09-03T11:09:01.690Z,58.63
2018-09-03T11:11:29.491Z,58.38
2018-09-03T11:13:56.829Z,58.98
2018-09-03T11:16:24.583Z,58.66
2018-09-03T11:18:51.748Z,60.86
2018-09-03T11:21:19.338Z,59.79
2018-09-03T11:23:46.399Z,61.32
2018-09-03T11:26:13.570Z,60.78
2018-09-03T11:28:40.738Z,60.85
2018-09-03T11:31:07.896Z,59.87
2018-09-03T11:33:35.075Z,59.28
2018-09-03T11:36:02.197Z,59.07
2018-09-03T11:38:29.348Z,59.44
2018-09-03T11:40:56.551Z,59.08
2018-09-03T11:43:23.650Z,58.24
2018-09-03T11:45:50.793Z,57.62
2018-09-03T11:48:17.998Z,57.15
2018-09-03T11:50:45.178Z,56.99
2018-09-03T11:53:12.369Z,55.06
2018-09-03T11:55:39.471Z,54.35
2018-09-03T11:58:06.662Z,54.33
2018-09-03T12:00:33.943Z,54.51
2018-09-03T12:03:01.060Z,53.09
2018-09-03T12:05:28.666Z,53.48
2018-09-03T12:07:55.837Z,53.17
2018-09-03T12:10:23.017Z,54.54
2018-09-03T12:12:50.145Z,54.08
2018-09-03T12:15:22.512Z,53.78
2018-09-03T12:17:49.627Z,51.83
2018-09-03T12:20:16.854Z,51.43
2018-09-03T12:22:44.001Z,52.17
2018-09-03T12:25:11.151Z,52.25
2018-09-03T12:27:38.305Z,53.41
2018-09-03T12:30:06.102Z,53.85
2018-09-03T12:32:33.178Z,53.08
2018-09-03T12:35:00.634Z,53.69
2018-09-03T12:37:27.765Z,54.42
2018-09-03T12:39:54.951Z,55.04
2018-09-03T12:42:22.099Z,54.24
2018-09-03T12:44:49.710Z,53.41
2018-09-03T12:47:16.862Z,53.72
2018-09-03T12:49:44.270Z,54.07
2018-09-03T12:52:11.416Z,55.40
2018-09-03T12:54:38.613Z,55.11
2018-09-03T12:57:05.784Z,55.54
2018-09-03T12:59:32.930Z,54.76
2018-09-03T13:02:00.093Z,53.72
2018-09-03T13:04:27.254Z,53.60
2018-09-03T13:06:54.467Z,52.26
2018-09-03T13:09:21.594Z,52.45
2018-09-03T13:11:48.746Z,51.27
2018-09-03T13:14:15.890Z,51.59
2018-09-03T13:16:43.135Z,52.44
2018-09-03T13:19:10.292Z,51.69
2018-09-03T13:21:37.714Z,51.92
2018-09-03T13:24:04.854Z,51.46
2018-09-03T13:26:32.422Z,51.49
2018-09-03T13:28:59.699Z,51.41
2018-09-03T13:31:26.986Z,51.63
2018-09-03T13:33:54.401Z,50.72
2018-09-03T13:36:21.559Z,50.10
2018-09-03T13:38:48.801Z,50.20
2018-09-03T13:41:16.020Z,50.34
2018-09-03T13:43:43.215Z,50.80
2018-09-03T13:46:10.440Z,50.76
2018-09-03T13:48:37.662Z,51.65
2018-09-03T13:51:05.040Z,52.65
2018-09-03T13:53:32.447Z,52.70
2018-09-03T13:55:59.607Z,53.51
2018-09-03T13:58:26.742Z,52.95
2018-09-03T14:00:53.970Z,53.35
2018-09-03T14:03:21.254Z,53.75
2018-09-03T14:05:48.793Z,54.17
2018-09-03T14:08:16.026Z,54.17
2018-09-03T14:10:43.151Z,55.02
2018-09-03T14:13:10.403Z,54.12
2018-09-03T14:15:37.574Z,54.33
2018-09-03T14:18:05.195Z,54.81
2018-09-03T14:20:32.654Z,54.57
2018-09-03T14:22:59.790Z,54.74
2018-09-03T14:25:27.037Z,54.76
2018-09-03T14:27:54.210Z,54.22
2018-09-03T14:30:21.360Z,53.62
2018-09-03T14:32:48.525Z,53.20
2018-09-03T14:35:15.758Z,53.18
2018-09-03T14:37:42.949Z,53.35
2018-09-03T14:40:10.133Z,53.14
2018-09-03T14:42:37.422Z,53.60
2018-09-03T14:45:04.905Z,52.60
2018-09-03T14:47:32.111Z,53.61
2018-09-03T14:49:59.698Z,53.75
2018-09-03T14:52:27.000Z,52.96
2018-09-03T14:54:54.203Z,53.63
2018-09-03T14:57:21.346Z,52.95
2018-09-03T14:59:48.639Z,52.80
2018-09-03T15:02:15.786Z,53.47
2018-09-03T15:04:49.719Z,51.89
2018-09-03T15:07:16.874Z,51.31
2018-09-03T15:09:44.112Z,51.04
2018-09-03T15:12:11.288Z,51.01
2018-09-03T15:14:38.464Z,51.51
2018-09-03T15:17:05.618Z,51.38
2018-09-03T15:19:32.897Z,52.92
2018-09-03T15:22:00.098Z,52.87
2018-09-03T15:24:27.227Z,52.14
2018-09-03T15:26:54.410Z,51.74
2018-09-03T15:29:21.552Z,52.15
2018-09-03T15:31:48.726Z,51.76
2018-09-03T15:34:15.826Z,51.53
2018-09-03T15:36:43.191Z,51.72
2018-09-03T15:39:11.487Z,51.35
2018-09-03T15:41:38.774Z,51.14
2018-09-03T15:44:06.213Z,51.15
2018-09-03T15:46:33.579Z,51.43
2018-09-03T15:49:00.759Z,51.96
2018-09-03T15:51:27.855Z,50.88
2018-09-03T15:53:55.121Z,52.19
2018-09-03T15:56:22.246Z,51.46
2018-09-03T15:58:49.394Z,52.69
2018-09-03T16:01:16.511Z,52.43
2018-09-03T16:03:43.629Z,52.95
2018-09-03T16:06:10.758Z,52.19
2018-09-03T16:08:37.910Z,52.57
2018-09-03T16:11:05.091Z,53.18
2018-09-03T16:13:32.234Z,52.62
2018-09-03T16:15:59.345Z,52.73
2018-09-03T16:18:27.614Z,52.95
2018-09-03T16:20:54.924Z,51.82
2018-09-03T16:23:22.058Z,52.01
2018-09-03T16:25:49.199Z,52.93
2018-09-03T16:28:16.342Z,52.82
2018-09-03T16:30:43.432Z,52.87
2018-09-03T16:33:11.221Z,52.93
2018-09-03T16:35:38.365Z,52.95
2018-09-03T16:38:05.604Z,52.83
2018-09-03T16:40:32.748Z,52.12
2018-09-03T16:42:59.934Z,52.06
2018-09-03T16:45:27.105Z,52.95
2018-09-03T16:47:54.234Z,52.53
2018-09-03T16:50:21.417Z,53.32
2018-09-03T16:52:48.626Z,52.43
2018-09-03T16:55:15.788Z,52.23
2018-09-03T16:57:42.894Z,52.31
2018-09-03T17:00:10.034Z,52.17
2018-09-03T17:02:37.190Z,52.59
2018-09-03T17:05:04.337Z,53.44
2018-09-03T17:07:31.745Z,53.62
2018-09-03T17:09:58.957Z,53.16
2018-09-03T17:12:33.092Z,55.03
2018-09-03T17:15:00.322Z,55.36
2018-09-03T17:17:27.489Z,56.15
2018-09-03T17:19:54.962Z,56.72
2018-09-03T17:22:22.255Z,57.96
2018-09-03T17:24:49.439Z,57.47
2018-09-03T17:27:16.649Z,58.43
2018-09-03T17:29:43.852Z,58.63
2018-09-03T17:32:11.307Z,58.05
2018-09-03T17:34:38.449Z,58.66
2018-09-03T17:37:05.590Z,58.82
2018-09-03T17:39:32.750Z,59.47
2018-09-03T17:41:59.882Z,60.50
2018-09-03T17:44:27.062Z,59.95
2018-09-03T17:46:54.280Z,62.35
2018-09-03T17:49:21.439Z,63.51
2018-09-03T17:51:48.617Z,64.44
2018-09-03T17:54:15.810Z,66.12
2018-09-03T17:56:43.022Z,67.26
2018-09-03T17:59:10.181Z,66.73
2018-09-03T18:01:37.357Z,68.32
2018-09-03T18:04:04.630Z,68.77
2018-09-03T18:06:31.880Z,69.50
2018-09-03T18:08:59.046Z,68.22
2018-09-03T18:11:27.286Z,70.19
2018-09-03T18:13:54.579Z,70.77
2018-09-03T18:16:21.732Z,71.78
2018-09-03T18:18:49.940Z,71.38
2018-09-03T18:21:17.111Z,71.35
2018-09-03T18:23:44.328Z,71.84
2018-09-03T18:26:11.556Z,72.54
2018-09-03T18:28:39.380Z,71.85
2018-09-03T18:31:06.640Z,72.10
2018-09-03T18:33:33.986Z,73.64
2018-09-03T18:36:01.188Z,73.63
2018-09-03T18:38:28.413Z,74.11
2018-09-03T18:40:55.570Z,73.18
2018-09-03T18:43:22.791Z,74.12
2018-09-03T18:45:50.810Z,74.75
2018-09-03T18:48:18.017Z,75.74
2018-09-03T18:50:46.410Z,75.94
2018-09-03T18:53:13.588Z,74.11
2018-09-03T18:55:40.740Z,74.79
2018-09-03T18:58:07.932Z,74.69
2018-09-03T19:00:35.065Z,75.92
2018-09-03T19:03:02.232Z,76.77
2018-09-03T19:05:29.930Z,75.00
2018-09-03T19:07:57.171Z,74.06
2018-09-03T19:10:24.420Z,74.54
2018-09-03T19:12:51.588Z,73.32
2018-09-03T19:15:18.761Z,74.27
2018-09-03T19:17:46.026Z,73.45
2018-09-03T19:20:14.794Z,75.60
2018-09-03T19:22:41.979Z,74.63
2018-09-03T19:25:09.514Z,76.25
2018-09-03T19:27:36.818Z,76.01
2018-09-03T19:30:04.222Z,77.12
2018-09-03T19:32:31.476Z,76.88
2018-09-03T19:35:01.795Z,76.57
2018-09-03T19:37:28.941Z,76.27
2018-09-03T19:39:56.140Z,76.86
2018-09-03T19:42:24.172Z,76.87
2018-09-03T19:44:51.748Z,78.07
2018-09-03T19:47:18.946Z,77.69
2018-09-03T19:49:46.124Z,78.49
2018-09-03T19:52:16.851Z,79.25
2018-09-03T19:54:44.164Z,79.57
2018-09-03T19:57:11.390Z,79.24
2018-09-03T19:59:38.634Z,79.12
2018-09-03T20:02:06.142Z,79.14
2018-09-03T20:04:33.795Z,80.09
2018-09-03T20:07:01.019Z,80.75
2018-09-03T20:09:28.161Z,80.03
2018-09-03T20:11:55.395Z,80.65
2018-09-03T20:14:22.837Z,80.19
2018-09-03T20:16:50.013Z,80.69
2018-09-03T20:19:17.281Z,80.31
2018-09-03T20:21:44.419Z,80.69
2018-09-03T20:24:12.029Z,80.16
2018-09-03T20:26:39.357Z,80.68
2018-09-03T20:29:06.576Z,81.15
2018-09-03T20:31:34.005Z,81.03
2018-09-03T20:34:01.160Z,80.80
2018-09-03T20:36:28.702Z,80.59
2018-09-03T20:38:56.769Z,81.80
2018-09-03T20:41:23.996Z,81.94
2018-09-03T20:43:51.183Z,81.38
2018-09-03T20:46:18.488Z,81.46
2018-09-03T20:48:46.288Z,80.07
2018-09-03T20:51:14.080Z,79.82
2018-09-03T20:53:41.313Z,80.09
2018-09-03T20:56:08.512Z,80.30
2018-09-03T20:58:35.793Z,80.49
2018-09-03T21:01:03.104Z,80.98
2018-09-03T21:03:30.450Z,81.43
2018-09-03T21:05:57.645Z,81.68
2018-09-03T21:08:24.841Z,81.34
2018-09-03T21:10:52.077Z,82.39
2018-09-03T21:13:20.835Z,81.90
2018-09-03T21:15:48.126Z,82.25
2018-09-03T21:18:15.232Z,82.80
2018-09-03T21:20:48.090Z,82.12
2018-09-03T21:23:15.713Z,80.91
2018-09-03T21:25:43.203Z,81.11
2018-09-03T21:28:10.603Z,81.24
2018-09-03T21:30:37.730Z,81.49
2018-09-03T21:33:04.918Z,81.59
2018-09-03T21:35:32.152Z,81.50
2018-09-03T21:37:59.401Z,81.88
2018-09-03T21:40:26.575Z,81.35
2018-09-03T21:42:53.738Z,81.66
2018-09-03T21:45:21.217Z,81.11
2018-09-03T21:47:48.437Z,81.57
2018-09-03T21:50:15.587Z,80.84
2018-09-03T21:52:42.747Z,81.29
2018-09-03T21:55:09.978Z,81.58
2018-09-03T21:57:37.206Z,82.47
2018-09-03T22:00:04.569Z,82.26
2018-09-03T22:02:31.767Z,82.06
2018-09-03T22:04:58.885Z,81.79
2018-09-03T22:07:26.075Z,81.31
2018-09-03T22:09:53.612Z,82.12
2018-09-03T22:12:20.778Z,82.08
2018-09-03T22:14:47.902Z,82.81
2018-09-03T22:17:15.150Z,82.97
2018-09-03T22:19:42.318Z,83.20
2018-09-03T22:22:09.729Z,83.02
2018-09-03T22:24:36.863Z,83.54
2018-09-03T22:27:04.037Z,83.16
2018-09-03T22:29:31.313Z,83.51
2018-09-03T22:31:58.487Z,83.85
2018-09-03T22:34:25.587Z,83.26
2018-09-03T22:36:52.789Z,83.76
2018-09-03T22:39:19.951Z,83.41
2018-09-03T22:41:47.107Z,83.80
2018-09-03T22:44:14.227Z,83.71
2018-09-03T22:46:41.402Z,83.75
2018-09-03T22:49:08.509Z,84.01
2018-09-03T22:51:35.711Z,82.64
2018-09-03T22:54:02.867Z,83.11
2018-09-03T22:56:29.995Z,83.59
2018-09-03T22:58:57.106Z,83.44
2018-09-03T23:01:24.174Z,84.20
2018-09-03T23:03:51.329Z,84.57
2018-09-03T23:06:18.441Z,84.54
2018-09-03T23:08:45.576Z,84.51
2018-09-03T23:11:12.793Z,84.08
2018-09-03T23:13:39.904Z,84.35
2018-09-03T23:16:07.043Z,84.44
2018-09-03T23:18:34.188Z,83.65
2018-09-03T23:21:01.302Z,83.68
2018-09-03T23:23:28.424Z,83.58
2018-09-03T23:25:55.548Z,82.76
2018-09-03T23:28:22.733Z,82.72
2018-09-03T23:30:49.952Z,82.71
2018-09-03T23:33:17.093Z,82.14
2018-09-03T23:35:44.199Z,82.87
2018-09-03T23:38:11.309Z,82.44
2018-09-03T23:40:38.421Z,83.61
2018-09-03T23:43:05.524Z,82.85
2018-09-03T23:45:32.753Z,82.99
2018-09-03T23:47:59.870Z,83.36
2018-09-03T23:50:27.001Z,83.16
2018-09-03T23:52:54.386Z,83.58
2018-09-03T23:55:21.518Z,82.90
2018-09-03T23:57:48.674Z,83.88
